Olney, TX

4:02 AM CDT on July 30, 2014 (GMT -0500)
Wichita Falls (KCWC) Elev 997 ft | 33.86 °N, 98.49 °W | Change Station

Current weather conditions updated 7 minutes ago

Rain
Rain
72 °F
Feels Like 72 °F
N
7
Wind Variable Wind from North

Today is forecast to be Much Warmer than yesterday. Morning showers and thunderstorms.

Today
High -- | Low -- °F
--% Chance of Precip.
Yesterday
High -- | Low -- °F
Precip. -- in
6:46 AM 8:36 PM
Waxing Crescent, 10% visible
Pressure 30.07 in
Visibility 5.0 miles
Clouds Scattered Clouds 2500 ft
Mostly Cloudy 5000 ft
Overcast 8500 ft
Dew Point 65 °F
Humidity 79%
Rainfall 0.07 in
Snow Depth Not available.
UV 0 out of 12
Pollen 4.70 out of 12
Air Quality Not available.
Flu Activity Not available.
METAR KCWC 300855Z AUTO 36006KT 5SM RA SCT025 BKN050 OVC085 22/18 A3007 RMK AO2 P0005 60005 T02200183

More Conditions Fewer Conditions

Pressure 30.07 in
Visibility 5.0 miles
Clouds Scattered Clouds 2500 ft
Mostly Cloudy 5000 ft
Overcast 8500 ft
Dew Point 65 °F
Humidity 79%
Rainfall 0.07 in
Snow Depth Not available.
UV 0 out of 12
Pollen 4.70 out of 12
Air Quality Not available.
Flu Activity Not available.
METAR KCWC 300855Z AUTO 36006KT 5SM RA SCT025 BKN050 OVC085 22/18 A3007 RMK AO2 P0005 60005 T02200183

More Conditions Fewer Conditions

10-Day Weather Forecast

Almanac

Astronomy

Jul. 30, 2014 Rise Set
Actual Time 6:46 AM CDT 8:36 PM CDT
Civil Twilight 6:19 AM CDT 9:03 PM CDT
Nautical Twilight 5:46 AM CDT 9:36 PM CDT
Astronomical Twilight 5:11 AM CDT 10:11 PM CDT
Moon 10:06 AM CDT 10:33 PM CDT
Length of Visible Light 14h 44m
Length of Day
13h 49m
Tomorrow will be 1m 30s shorter.
Waxing Crescent, 10% of the Moon is Illuminated
Today
Waxing Crescent
Aug 3
First Quarter
Aug 10
Full
Aug 17
Last Quarter
Aug 25
New

Today's Extremes

State Highs State Lows

Community

WunderPhotos

Upload Photos

1,739,018 photos uploaded!

WunderBlogs® & News

By Dr. Jeff Masters
Director of Meteorology, Weather Underground
By Kari Strenfel
Meteorologist, Weather Underground
By Christopher C. Burt
Weather Historian, Weather Underground
July 29, 2014
July 29, 2014
July 29, 2014

Nearby

Snow Depth

Station Depth Elevation
No new snow has been reported.

Earthquake Activity

City Distance Mag. Time & Date
No recent earthquake activity has been reported nearby.
Minimum magnitude displayed is 2.5.

Coastal Water Temperatures

Place Temperature
No Stations Reporting

Nearby Weather Stations

Station Location Temp. Heat Index Dew Point Humidity Wind Precip. Elev Updated Type
DDR Longhorns Graham, Texas, Graham, TX 73.9 °F 77 °F 60 °F 61% SE  at  4.0 mph 0.00 in / hr 1178 ft 4:02 AM CDT Rapid Fire

Show More Stations Show Fewer Stations